createdAt,value
2018-01-03T00:01:08.422Z,965.71
2018-01-03T00:02:18.129Z,965.67
2018-01-03T00:03:28.102Z,965.62
2018-01-03T00:04:37.817Z,965.65
2018-01-03T00:05:47.524Z,965.64
2018-01-03T00:06:57.509Z,965.63
2018-01-03T00:08:07.481Z,965.64
2018-01-03T00:09:17.201Z,965.64
2018-01-03T00:10:26.909Z,965.69
2018-01-03T00:11:36.620Z,965.7
2018-01-03T00:12:46.593Z,965.72
2018-01-03T00:13:55.776Z,965.69
2018-01-03T00:15:05.745Z,965.65
2018-01-03T00:16:15.723Z,965.61
2018-01-03T00:17:25.698Z,965.64
2018-01-03T00:18:35.669Z,965.62
2018-01-03T00:19:45.646Z,965.56
2018-01-03T00:20:55.362Z,965.57
2018-01-03T00:22:05.069Z,965.5
2018-01-03T00:23:15.043Z,965.52
2018-01-03T00:24:25.022Z,965.46
2018-01-03T00:25:34.732Z,965.44
2018-01-03T00:26:44.701Z,965.43
2018-01-03T00:27:54.673Z,965.4
2018-01-03T00:29:04.643Z,965.46
2018-01-03T00:30:14.617Z,965.41
2018-01-03T00:31:24.600Z,965.4
2018-01-03T00:32:34.572Z,965.4
2018-01-03T00:33:44.539Z,965.36
2018-01-03T00:34:54.257Z,965.35
2018-01-03T00:36:04.238Z,965.35
2018-01-03T00:37:13.950Z,965.32
2018-01-03T00:38:23.662Z,965.26
2018-01-03T00:39:33.634Z,965.19
2018-01-03T00:40:43.344Z,965.14
2018-01-03T00:41:53.324Z,965.11
2018-01-03T00:43:03.299Z,965.03
2018-01-03T00:44:13.009Z,965.02
2018-01-03T00:45:22.983Z,964.98
2018-01-03T00:46:32.690Z,965.05
2018-01-03T00:47:41.874Z,965.05
2018-01-03T00:48:51.844Z,965.08
2018-01-03T00:50:01.548Z,965.14
2018-01-03T00:51:11.583Z,965.15
2018-01-03T00:52:21.564Z,965.12
2018-01-03T00:53:31.274Z,965.16
2018-01-03T00:54:40.979Z,965.14
2018-01-03T00:55:50.953Z,965.16
2018-01-03T00:57:00.667Z,965.18
2018-01-03T00:58:10.643Z,965.19
2018-01-03T00:59:20.348Z,965.2
2018-01-03T01:00:30.058Z,965.16
2018-01-03T01:01:39.764Z,965.12
2018-01-03T01:02:49.213Z,965.2
2018-01-03T01:03:58.929Z,965.21
2018-01-03T01:05:08.639Z,965.17
2018-01-03T01:06:18.655Z,965.26
2018-01-03T01:07:28.627Z,965.21
2018-01-03T01:08:38.599Z,965.2
2018-01-03T01:09:48.573Z,965.17
2018-01-03T01:10:58.546Z,965.19
2018-01-03T01:12:08.270Z,965.19
2018-01-03T01:13:17.978Z,965.16
2018-01-03T01:14:27.691Z,965.14
2018-01-03T01:15:37.402Z,965.1
2018-01-03T01:16:47.109Z,965.05
2018-01-03T01:17:57.081Z,964.97
2018-01-03T01:19:06.791Z,964.91
2018-01-03T01:20:16.498Z,964.93
2018-01-03T01:21:26.215Z,964.93
2018-01-03T01:22:35.669Z,964.91
2018-01-03T01:23:45.641Z,964.97
2018-01-03T01:24:55.635Z,964.95
2018-01-03T01:26:05.080Z,964.99
2018-01-03T01:27:14.791Z,965
2018-01-03T01:28:24.767Z,965
2018-01-03T01:29:34.775Z,964.98
2018-01-03T01:30:44.746Z,964.95
2018-01-03T01:31:54.453Z,964.96
2018-01-03T01:33:04.515Z,964.92
2018-01-03T01:34:14.491Z,964.92
2018-01-03T01:35:24.462Z,964.91
2018-01-03T01:36:34.439Z,964.9
2018-01-03T01:37:44.413Z,964.91
2018-01-03T01:38:54.384Z,964.95
2018-01-03T01:40:04.155Z,964.95
2018-01-03T01:41:13.336Z,964.95
2018-01-03T01:42:23.305Z,964.92
2018-01-03T01:43:33.014Z,964.89
2018-01-03T01:44:42.986Z,964.83
2018-01-03T01:45:53.006Z,964.88
2018-01-03T01:47:02.998Z,964.85
2018-01-03T01:48:12.760Z,964.83
2018-01-03T01:49:22.740Z,964.82
2018-01-03T01:50:32.190Z,964.82
2018-01-03T01:51:41.895Z,964.8
2018-01-03T01:52:51.877Z,964.83
2018-01-03T01:54:01.848Z,964.83
2018-01-03T01:55:11.820Z,964.82
2018-01-03T01:56:21.791Z,964.73
2018-01-03T01:57:31.759Z,964.69
2018-01-03T01:58:41.730Z,964.69
2018-01-03T01:59:51.176Z,964.68
2018-01-03T02:01:00.880Z,964.73
2018-01-03T02:02:10.864Z,964.77
2018-01-03T02:03:20.836Z,964.74
2018-01-03T02:04:30.547Z,964.69
2018-01-03T02:05:40.255Z,964.68
2018-01-03T02:06:50.020Z,964.65
2018-01-03T02:07:59.726Z,964.62
2018-01-03T02:09:09.441Z,964.64
2018-01-03T02:10:19.202Z,964.59
2018-01-03T02:11:29.173Z,964.59
2018-01-03T02:12:39.144Z,964.59
2018-01-03T02:13:49.116Z,964.49
2018-01-03T02:14:58.564Z,964.49
2018-01-03T02:16:08.271Z,964.43
2018-01-03T02:17:18.243Z,964.44
2018-01-03T02:18:27.950Z,964.36
2018-01-03T02:19:37.930Z,964.38
2018-01-03T02:20:47.907Z,964.4
2018-01-03T02:21:57.886Z,964.43
2018-01-03T02:23:07.870Z,964.32
2018-01-03T02:24:17.584Z,964.31
2018-01-03T02:25:27.288Z,964.26
2018-01-03T02:26:36.729Z,964.28
2018-01-03T02:27:46.709Z,964.27
2018-01-03T02:28:56.156Z,964.27
2018-01-03T02:30:06.128Z,964.22
2018-01-03T02:31:15.841Z,964.18
2018-01-03T02:32:25.557Z,964.1
2018-01-03T02:33:35.539Z,964.17
2018-01-03T02:34:45.243Z,964.21
2018-01-03T02:35:55.222Z,964.2
2018-01-03T02:37:04.946Z,964.19
2018-01-03T02:38:14.654Z,964.15
2018-01-03T02:39:24.668Z,964.05
2018-01-03T02:40:34.110Z,963.99
2018-01-03T02:41:43.828Z,964
2018-01-03T02:42:53.268Z,963.96
2018-01-03T02:44:03.237Z,963.99
2018-01-03T02:45:13.235Z,963.99
2018-01-03T02:46:22.945Z,963.91
2018-01-03T02:47:32.650Z,963.88
2018-01-03T02:48:42.623Z,963.9
2018-01-03T02:49:52.337Z,963.88
2018-01-03T02:51:02.308Z,963.92
2018-01-03T02:52:12.282Z,963.82
2018-01-03T02:53:22.260Z,963.76
2018-01-03T02:54:32.233Z,963.75
2018-01-03T02:55:42.206Z,963.72
2018-01-03T02:56:51.920Z,963.69
2018-01-03T02:58:01.894Z,963.72
2018-01-03T02:59:11.602Z,963.65
2018-01-03T03:00:21.570Z,963.65
2018-01-03T03:01:31.286Z,963.67
2018-01-03T03:02:43.254Z,963.72
2018-01-03T03:03:53.223Z,963.67
2018-01-03T03:05:02.928Z,963.64
2018-01-03T03:06:12.899Z,963.63
2018-01-03T03:07:22.869Z,963.64
2018-01-03T03:08:32.310Z,963.58
2018-01-03T03:09:42.332Z,963.57
2018-01-03T03:10:52.034Z,963.54
2018-01-03T03:12:02.007Z,963.57
2018-01-03T03:13:11.720Z,963.66
2018-01-03T03:14:21.700Z,963.64
2018-01-03T03:15:31.671Z,963.63
2018-01-03T03:16:41.378Z,963.64
2018-01-03T03:17:51.348Z,963.6
2018-01-03T03:19:01.319Z,963.56
2018-01-03T03:20:11.373Z,963.55
2018-01-03T03:21:21.397Z,963.56
2018-01-03T03:22:31.369Z,963.64
2018-01-03T03:23:41.071Z,963.62
2018-01-03T03:24:51.042Z,963.6
2018-01-03T03:26:01.044Z,963.61
2018-01-03T03:27:10.754Z,963.61
2018-01-03T03:28:20.461Z,963.56
2018-01-03T03:29:30.437Z,963.46
2018-01-03T03:30:40.449Z,963.4
2018-01-03T03:31:50.429Z,963.37
2018-01-03T03:33:00.140Z,963.4
2018-01-03T03:34:10.109Z,963.44
2018-01-03T03:35:19.813Z,963.49
2018-01-03T03:36:29.783Z,963.44
2018-01-03T03:37:39.497Z,963.45
2018-01-03T03:38:48.952Z,963.51
2018-01-03T03:39:58.925Z,963.53
2018-01-03T03:41:08.380Z,963.49
2018-01-03T03:42:18.348Z,963.36
2018-01-03T03:43:28.055Z,963.27
2018-01-03T03:44:38.028Z,963.23
2018-01-03T03:45:48.009Z,963.29
2018-01-03T03:46:57.979Z,963.29
2018-01-03T03:48:07.957Z,963.27
2018-01-03T03:49:17.662Z,963.3
2018-01-03T03:50:27.637Z,963.29
2018-01-03T03:51:37.350Z,963.21
2018-01-03T03:52:47.056Z,963.22
2018-01-03T03:53:57.028Z,963.21
2018-01-03T03:55:07.003Z,963.22
2018-01-03T03:56:16.723Z,963.25
2018-01-03T03:57:26.741Z,963.31
2018-01-03T03:58:36.718Z,963.15
2018-01-03T03:59:46.687Z,963.11
2018-01-03T04:03:28.964Z,963.11
2018-01-03T04:04:38.936Z,963.01
2018-01-03T04:05:48.910Z,962.95
2018-01-03T04:06:58.879Z,962.91
2018-01-03T04:08:08.630Z,962.9
2018-01-03T04:09:18.339Z,962.87
2018-01-03T04:10:28.062Z,962.91
2018-01-03T04:11:38.036Z,962.96
2018-01-03T04:12:48.008Z,962.95
2018-01-03T04:13:57.991Z,962.87
2018-01-03T04:15:07.965Z,962.87
2018-01-03T04:16:17.937Z,962.86
2018-01-03T04:17:27.381Z,962.78
2018-01-03T04:18:37.380Z,962.77
2018-01-03T04:19:47.084Z,962.81
2018-01-03T04:20:56.794Z,962.87
2018-01-03T04:22:06.771Z,962.81
2018-01-03T04:23:16.745Z,962.75
2018-01-03T04:24:26.723Z,962.72
2018-01-03T04:25:36.172Z,962.73
2018-01-03T04:26:46.143Z,962.79
2018-01-03T04:27:56.111Z,962.86
2018-01-03T04:29:06.084Z,962.87
2018-01-03T04:30:16.060Z,962.83
2018-01-03T04:31:26.040Z,962.83
2018-01-03T04:32:36.011Z,962.88
2018-01-03T04:33:45.987Z,962.86
2018-01-03T04:34:55.956Z,962.91
2018-01-03T04:36:05.929Z,963.01
2018-01-03T04:37:15.639Z,962.95
2018-01-03T04:38:25.615Z,962.88
2018-01-03T04:39:35.640Z,962.87
2018-01-03T04:40:45.608Z,962.82
2018-01-03T04:41:55.582Z,962.8
2018-01-03T04:43:05.555Z,962.78
2018-01-03T04:44:15.528Z,962.77
2018-01-03T04:45:25.499Z,962.79
2018-01-03T04:46:35.472Z,962.82
2018-01-03T04:47:45.448Z,962.79
2018-01-03T04:48:55.422Z,962.77
2018-01-03T04:50:05.132Z,962.75
2018-01-03T04:51:14.848Z,962.79
2018-01-03T04:52:24.556Z,962.78
2018-01-03T04:53:34.262Z,962.76
2018-01-03T04:54:43.970Z,962.71
2018-01-03T04:55:53.945Z,962.66
2018-01-03T04:57:03.920Z,962.65
2018-01-03T04:58:13.958Z,962.64
2018-01-03T04:59:23.939Z,962.65
2018-01-03T05:00:33.647Z,962.61
2018-01-03T05:01:43.628Z,962.64
2018-01-03T05:02:53.603Z,962.58
2018-01-03T05:04:03.580Z,962.49
2018-01-03T05:05:13.597Z,962.5
2018-01-03T05:06:23.305Z,962.48
2018-01-03T05:07:33.278Z,962.51
2018-01-03T05:08:42.984Z,962.52
2018-01-03T05:09:52.957Z,962.47
2018-01-03T05:11:02.672Z,962.47
2018-01-03T05:12:12.642Z,962.49
2018-01-03T05:13:22.622Z,962.52
2018-01-03T05:14:32.329Z,962.52
2018-01-03T05:15:41.512Z,962.49
2018-01-03T05:16:51.493Z,962.44
2018-01-03T05:18:00.939Z,962.41
2018-01-03T05:19:10.647Z,962.41
2018-01-03T05:20:20.618Z,962.42
2018-01-03T05:21:30.598Z,962.39
2018-01-03T05:22:40.312Z,962.35
2018-01-03T05:23:50.285Z,962.27
2018-01-03T05:24:59.735Z,962.26
2018-01-03T05:26:09.734Z,962.18
2018-01-03T05:27:19.717Z,962.25
2018-01-03T05:28:29.694Z,962.19
2018-01-03T05:29:39.141Z,962.17
2018-01-03T05:30:48.848Z,962.17
2018-01-03T05:31:58.555Z,962.17
2018-01-03T05:33:08.543Z,962.18
2018-01-03T05:34:18.533Z,962.19
2018-01-03T05:35:27.974Z,962.14
2018-01-03T05:36:37.947Z,962.15
2018-01-03T05:37:47.920Z,962.19
2018-01-03T05:38:57.625Z,962.16
2018-01-03T05:40:07.612Z,962.15
2018-01-03T05:41:17.321Z,962.16
2018-01-03T05:42:27.035Z,962.09
2018-01-03T05:43:37.014Z,962.11
2018-01-03T05:44:46.982Z,962.05
2018-01-03T05:45:56.954Z,962.06
2018-01-03T05:47:06.935Z,962.06
2018-01-03T05:48:16.911Z,962.05
2018-01-03T05:49:26.628Z,962.08
2018-01-03T05:50:36.602Z,962.02
2018-01-03T05:51:46.313Z,961.95
2018-01-03T05:52:55.789Z,961.95
2018-01-03T05:54:05.505Z,961.94
2018-01-03T05:55:15.476Z,961.95
2018-01-03T05:56:25.444Z,961.94
2018-01-03T05:57:35.155Z,961.94
2018-01-03T05:58:45.130Z,961.86
2018-01-03T05:59:55.128Z,961.82
2018-01-03T06:01:04.835Z,961.82
2018-01-03T06:02:14.559Z,961.78
2018-01-03T06:03:24.531Z,961.83
2018-01-03T06:04:34.507Z,961.81
2018-01-03T06:05:44.479Z,961.79
2018-01-03T06:06:54.187Z,961.8
2018-01-03T06:08:03.891Z,961.73
2018-01-03T06:09:13.600Z,961.65
2018-01-03T06:10:23.308Z,961.61
2018-01-03T06:11:33.283Z,961.64
2018-01-03T06:12:43.001Z,961.67
2018-01-03T06:13:52.974Z,961.64
2018-01-03T06:15:02.948Z,961.71
2018-01-03T06:16:12.668Z,961.72
2018-01-03T06:17:22.647Z,961.69
2018-01-03T06:18:32.362Z,961.77
2018-01-03T06:19:41.812Z,961.72
2018-01-03T06:20:51.784Z,961.71
2018-01-03T06:22:01.802Z,961.71
2018-01-03T06:23:11.777Z,961.7
2018-01-03T06:24:21.759Z,961.73
2018-01-03T06:25:31.737Z,961.73
2018-01-03T06:26:41.710Z,961.72
2018-01-03T06:27:51.690Z,961.69
2018-01-03T06:29:01.665Z,961.7
2018-01-03T06:30:11.641Z,961.63
2018-01-03T06:31:21.084Z,961.61
2018-01-03T06:32:31.055Z,961.55
2018-01-03T06:33:40.768Z,961.56
2018-01-03T06:34:50.740Z,961.59
2018-01-03T06:36:00.181Z,961.58
2018-01-03T06:37:10.232Z,961.57
2018-01-03T06:38:20.224Z,961.48
2018-01-03T06:39:30.196Z,961.48
2018-01-03T06:40:39.907Z,961.4
2018-01-03T06:41:49.877Z,961.4
2018-01-03T06:42:59.322Z,961.4
2018-01-03T06:44:09.300Z,961.43
2018-01-03T06:45:19.299Z,961.42
2018-01-03T06:46:29.034Z,961.42
2018-01-03T06:47:39.007Z,961.38
2018-01-03T06:48:48.979Z,961.35
2018-01-03T06:49:58.951Z,961.4
2018-01-03T06:51:08.396Z,961.37
2018-01-03T06:52:20.375Z,961.37
2018-01-03T06:53:30.347Z,961.34
2018-01-03T06:54:40.052Z,961.32
2018-01-03T06:55:50.023Z,961.32
2018-01-03T06:57:00.008Z,961.31
2018-01-03T06:58:09.738Z,961.32
2018-01-03T06:59:19.708Z,961.31
2018-01-03T07:00:29.677Z,961.25
2018-01-03T07:01:39.694Z,961.24
2018-01-03T07:02:49.678Z,961.27
2018-01-03T07:03:59.650Z,961.24
2018-01-03T07:05:09.629Z,961.3
2018-01-03T07:06:19.607Z,961.29
2018-01-03T07:07:29.577Z,961.26
2018-01-03T07:08:39.029Z,961.24
2018-01-03T07:09:48.475Z,961.25
2018-01-03T07:10:58.448Z,961.29
2018-01-03T07:12:07.629Z,961.33
2018-01-03T07:13:17.348Z,961.29
2018-01-03T07:14:26.797Z,961.29
2018-01-03T07:15:36.808Z,961.34
2018-01-03T07:16:46.780Z,961.28
2018-01-03T07:17:56.751Z,961.29
2018-01-03T07:19:06.728Z,961.31
2018-01-03T07:20:16.700Z,961.34
2018-01-03T07:21:26.410Z,961.27
2018-01-03T07:22:36.123Z,961.26
2018-01-03T07:23:45.831Z,961.24
2018-01-03T07:24:55.833Z,961.32
2018-01-03T07:26:05.281Z,961.2
2018-01-03T07:27:15.031Z,961.23
2018-01-03T07:28:24.743Z,961.19
2018-01-03T07:29:34.188Z,961.09
2018-01-03T07:30:43.895Z,961.18
2018-01-03T07:31:53.868Z,961.18
2018-01-03T07:33:03.314Z,961.07
2018-01-03T07:34:13.334Z,961.1
2018-01-03T07:35:23.313Z,961.05
2018-01-03T07:36:33.294Z,961.05
2018-01-03T07:37:43.268Z,961.08
2018-01-03T07:38:53.245Z,961.03
2018-01-03T07:40:03.012Z,961.03
2018-01-03T07:41:12.737Z,960.95
2018-01-03T07:42:22.718Z,960.97
2018-01-03T07:43:32.691Z,960.98
2018-01-03T07:44:44.664Z,961.01
2018-01-03T07:45:54.635Z,960.98
2018-01-03T07:47:04.344Z,960.94
2018-01-03T07:48:14.320Z,960.96
2018-01-03T07:49:24.295Z,960.98
2018-01-03T07:50:34.005Z,960.98
2018-01-03T07:51:43.982Z,960.99
2018-01-03T07:52:53.688Z,961.01
2018-01-03T07:54:03.399Z,961.01
2018-01-03T07:55:13.384Z,960.98
2018-01-03T07:56:23.091Z,960.98
2018-01-03T07:57:32.799Z,960.89
2018-01-03T07:58:42.242Z,960.87
2018-01-03T07:59:51.951Z,960.85
2018-01-03T08:01:01.680Z,960.87
2018-01-03T08:02:11.668Z,960.93
2018-01-03T08:03:21.383Z,960.93
2018-01-03T08:04:31.357Z,960.97
2018-01-03T08:05:41.343Z,960.99
2018-01-03T08:06:51.318Z,960.95
2018-01-03T08:08:01.328Z,960.97
2018-01-03T08:09:11.037Z,960.96
2018-01-03T08:10:21.010Z,960.96
2018-01-03T08:11:30.985Z,960.97
2018-01-03T08:12:40.431Z,960.98
2018-01-03T08:13:50.455Z,961.01
2018-01-03T08:15:00.163Z,961.03
2018-01-03T08:16:09.872Z,960.95
2018-01-03T08:17:19.890Z,960.99
2018-01-03T08:18:29.864Z,961
2018-01-03T08:19:39.837Z,960.96
2018-01-03T08:20:49.549Z,960.94
2018-01-03T08:21:59.523Z,960.9
2018-01-03T08:23:09.501Z,960.95
2018-01-03T08:24:19.477Z,961
2018-01-03T08:25:29.190Z,961.01
2018-01-03T08:26:39.167Z,961.06
2018-01-03T08:27:49.140Z,961.02
2018-01-03T08:28:59.115Z,961.04
2018-01-03T08:30:09.085Z,961.02
2018-01-03T08:31:18.800Z,961.04
2018-01-03T08:32:28.775Z,961.05
2018-01-03T08:33:38.490Z,961.04
2018-01-03T08:34:48.467Z,960.97
2018-01-03T08:35:58.485Z,960.96
2018-01-03T08:37:08.519Z,960.98
2018-01-03T08:38:18.497Z,961.01
2018-01-03T08:39:27.948Z,961
2018-01-03T08:40:37.929Z,961.01
2018-01-03T08:41:47.649Z,961.01
2018-01-03T08:42:57.368Z,961.04
2018-01-03T08:44:07.073Z,960.99
2018-01-03T08:45:17.094Z,961.01
2018-01-03T08:46:26.807Z,960.94
2018-01-03T08:47:36.777Z,960.96
2018-01-03T08:48:46.226Z,960.96
2018-01-03T08:49:56.238Z,960.94
2018-01-03T08:51:05.949Z,961
2018-01-03T08:52:15.923Z,960.96
2018-01-03T08:53:25.905Z,960.99
2018-01-03T08:54:35.912Z,961.04
2018-01-03T08:55:45.632Z,961
2018-01-03T08:56:55.341Z,961.03
2018-01-03T08:58:05.046Z,961.02
2018-01-03T08:59:15.022Z,961.04
2018-01-03T09:00:24.467Z,960.99
2018-01-03T09:01:34.187Z,960.99
2018-01-03T09:02:44.172Z,961.02
2018-01-03T09:03:53.882Z,960.99
2018-01-03T09:05:03.858Z,960.98
2018-01-03T09:06:13.836Z,960.98
2018-01-03T09:07:23.816Z,960.94
2018-01-03T09:08:33.798Z,960.9
2018-01-03T09:09:43.772Z,960.87
2018-01-03T09:10:53.750Z,960.92
2018-01-03T09:12:03.723Z,960.87
2018-01-03T09:13:13.169Z,960.91
2018-01-03T09:14:23.439Z,960.91
2018-01-03T09:15:33.153Z,960.82
2018-01-03T09:16:43.129Z,960.84
2018-01-03T09:17:52.835Z,960.87
2018-01-03T09:19:02.551Z,960.88
2018-01-03T09:20:12.531Z,960.91
2018-01-03T09:21:22.507Z,960.91
2018-01-03T09:22:32.215Z,960.9
2018-01-03T09:23:42.188Z,960.92
2018-01-03T09:24:52.164Z,960.86
2018-01-03T09:26:02.140Z,960.88
2018-01-03T09:27:11.851Z,960.77
2018-01-03T09:28:21.563Z,960.73
2018-01-03T09:29:31.006Z,960.72
2018-01-03T09:30:40.981Z,960.73
2018-01-03T09:31:50.692Z,960.68
2018-01-03T09:33:00.671Z,960.69
2018-01-03T09:34:10.642Z,960.71
2018-01-03T09:35:20.622Z,960.72
2018-01-03T09:36:30.603Z,960.75
2018-01-03T09:37:40.581Z,960.7
2018-01-03T09:38:50.297Z,960.69
2018-01-03T09:40:00.270Z,960.7
2018-01-03T09:41:09.808Z,960.71
2018-01-03T09:42:19.522Z,960.66
2018-01-03T09:43:29.499Z,960.65
2018-01-03T09:44:39.486Z,960.69
2018-01-03T09:45:49.199Z,960.6
2018-01-03T09:46:59.175Z,960.6
2018-01-03T09:48:08.894Z,960.58
2018-01-03T09:49:18.609Z,960.53
2018-01-03T09:50:27.794Z,960.59
2018-01-03T09:51:37.778Z,960.57
2018-01-03T09:52:47.490Z,960.58
2018-01-03T09:53:57.198Z,960.55
2018-01-03T09:55:06.914Z,960.53
2018-01-03T09:56:16.369Z,960.56
2018-01-03T09:57:26.434Z,960.52
2018-01-03T09:58:36.143Z,960.48
2018-01-03T09:59:45.856Z,960.55
2018-01-03T10:00:55.854Z,960.53
2018-01-03T10:02:05.829Z,960.56
2018-01-03T10:03:15.580Z,960.56
2018-01-03T10:04:25.559Z,960.55
2018-01-03T10:05:35.542Z,960.53
2018-01-03T10:06:45.527Z,960.52
2018-01-03T10:07:55.508Z,960.57
2018-01-03T10:09:05.225Z,960.62
2018-01-03T10:10:16.264Z,960.59
2018-01-03T10:11:26.304Z,960.58
2018-01-03T10:12:35.753Z,960.61
2018-01-03T10:13:45.727Z,960.56
2018-01-03T10:14:55.182Z,960.56
2018-01-03T10:16:04.894Z,960.52
2018-01-03T10:17:14.340Z,960.46
2018-01-03T10:18:24.317Z,960.46
2018-01-03T10:19:34.023Z,960.48
2018-01-03T10:20:43.998Z,960.43
2018-01-03T10:21:54.618Z,960.43
2018-01-03T10:23:04.332Z,960.38
2018-01-03T10:24:14.042Z,960.41
2018-01-03T10:25:23.223Z,960.32
2018-01-03T10:26:33.205Z,960.37
2018-01-03T10:27:42.915Z,960.36
2018-01-03T10:28:52.887Z,960.4
2018-01-03T10:30:02.862Z,960.39
2018-01-03T10:31:12.309Z,960.38
2018-01-03T10:32:22.287Z,960.37
2018-01-03T10:33:32.072Z,960.39
2018-01-03T10:34:41.783Z,960.39
2018-01-03T10:35:51.762Z,960.37
2018-01-03T10:37:01.734Z,960.36
2018-01-03T10:38:11.710Z,960.33
2018-01-03T10:39:21.421Z,960.34
2018-01-03T10:40:30.602Z,960.34
2018-01-03T10:41:40.575Z,960.32
2018-01-03T10:42:50.550Z,960.29
2018-01-03T10:43:59.998Z,960.3
2018-01-03T10:45:09.974Z,960.31
2018-01-03T10:46:19.953Z,960.37
2018-01-03T10:47:29.941Z,960.28
2018-01-03T10:48:39.649Z,960.28
2018-01-03T10:49:49.628Z,960.26
2018-01-03T10:50:59.076Z,960.34
2018-01-03T10:52:08.791Z,960.28
2018-01-03T10:53:18.310Z,960.33
2018-01-03T10:54:28.281Z,960.35
2018-01-03T10:55:37.990Z,960.37
2018-01-03T10:56:47.701Z,960.3
2018-01-03T10:57:57.417Z,960.27
2018-01-03T10:59:07.437Z,960.24
2018-01-03T11:00:17.417Z,960.23
2018-01-03T11:01:27.393Z,960.23
2018-01-03T11:02:37.369Z,960.25
2018-01-03T11:03:47.351Z,960.25
2018-01-03T11:04:57.323Z,960.23
2018-01-03T11:06:07.106Z,960.18
2018-01-03T11:07:17.091Z,960.19
2018-01-03T11:08:26.803Z,960.23
2018-01-03T11:09:36.515Z,960.23
2018-01-03T11:10:46.283Z,960.24
2018-01-03T11:11:55.994Z,960.22
2018-01-03T11:13:05.712Z,960.26
2018-01-03T11:14:15.425Z,960.22
2018-01-03T11:15:25.141Z,960.26
2018-01-03T11:16:34.637Z,960.26
2018-01-03T11:17:44.420Z,960.23
2018-01-03T11:18:54.130Z,960.2
2018-01-03T11:20:05.841Z,960.19
2018-01-03T11:21:15.555Z,960.21
2018-01-03T11:22:25.549Z,960.25
2018-01-03T11:23:35.525Z,960.25
2018-01-03T11:24:44.973Z,960.3
2018-01-03T11:25:54.683Z,960.32
2018-01-03T11:27:04.129Z,960.34
2018-01-03T11:28:13.847Z,960.35
2018-01-03T11:29:23.834Z,960.38
2018-01-03T11:30:33.544Z,960.32
2018-01-03T11:31:43.516Z,960.33
2018-01-03T11:32:53.494Z,960.39
2018-01-03T11:34:03.206Z,960.38
2018-01-03T11:35:12.915Z,960.38
2018-01-03T11:36:22.894Z,960.32
2018-01-03T11:37:32.871Z,960.37
2018-01-03T11:38:42.319Z,960.4
2018-01-03T11:39:52.292Z,960.34
2018-01-03T11:41:02.004Z,960.35
2018-01-03T11:42:11.978Z,960.37
2018-01-03T11:43:21.698Z,960.34
2018-01-03T11:44:31.144Z,960.4
2018-01-03T11:45:40.593Z,960.39
2018-01-03T11:46:50.045Z,960.39
2018-01-03T11:47:59.756Z,960.36
2018-01-03T11:49:09.738Z,960.33
2018-01-03T11:50:19.720Z,960.39
2018-01-03T11:51:29.704Z,960.4
2018-01-03T11:52:39.156Z,960.34
2018-01-03T11:53:49.134Z,960.4
2018-01-03T11:54:58.579Z,960.37
2018-01-03T11:56:08.640Z,960.36
2018-01-03T11:57:18.613Z,960.36
2018-01-03T11:58:28.333Z,960.39
2018-01-03T11:59:38.046Z,960.38
2018-01-03T12:00:48.017Z,960.38
2018-01-03T12:01:58.000Z,960.37
2018-01-03T12:03:07.987Z,960.41
2018-01-03T12:04:17.964Z,960.4
2018-01-03T12:05:27.998Z,960.37
2018-01-03T12:06:37.971Z,960.35
2018-01-03T12:07:47.946Z,960.38
2018-01-03T12:08:57.921Z,960.36
2018-01-03T12:10:07.893Z,960.44
2018-01-03T12:11:17.607Z,960.38
2018-01-03T12:12:27.583Z,960.33
2018-01-03T12:13:37.574Z,960.31
2018-01-03T12:14:47.555Z,960.35
2018-01-03T12:15:56.739Z,960.35
2018-01-03T12:17:06.717Z,960.36
2018-01-03T12:18:16.691Z,960.36
2018-01-03T12:19:26.665Z,960.35
2018-01-03T12:20:36.377Z,960.32
2018-01-03T12:21:46.086Z,960.36
2018-01-03T12:22:56.064Z,960.35
2018-01-03T12:24:06.046Z,960.36
2018-01-03T12:25:16.023Z,960.4
2018-01-03T12:26:25.999Z,960.4
2018-01-03T12:27:36.015Z,960.4
2018-01-03T12:28:45.993Z,960.42
2018-01-03T12:29:55.968Z,960.45
2018-01-03T12:31:05.681Z,960.45
2018-01-03T12:32:15.657Z,960.42
2018-01-03T12:33:25.655Z,960.42
2018-01-03T12:34:35.629Z,960.36
2018-01-03T12:35:45.138Z,960.4
2018-01-03T12:36:54.586Z,960.36
2018-01-03T12:38:04.659Z,960.34
2018-01-03T12:39:14.633Z,960.38
2018-01-03T12:40:24.079Z,960.35
2018-01-03T12:41:34.055Z,960.4
2018-01-03T12:42:43.508Z,960.38
2018-01-03T12:43:53.217Z,960.42
2018-01-03T12:45:03.196Z,960.39
2018-01-03T12:46:13.207Z,960.41
2018-01-03T12:47:23.208Z,960.46
2018-01-03T12:48:32.918Z,960.42
2018-01-03T12:49:42.918Z,960.48
2018-01-03T12:50:52.639Z,960.5
2018-01-03T12:52:02.108Z,960.46
2018-01-03T12:53:12.086Z,960.47
2018-01-03T12:54:22.063Z,960.44
2018-01-03T12:55:31.786Z,960.47
2018-01-03T12:56:41.510Z,960.5
2018-01-03T12:57:51.527Z,960.52
2018-01-03T12:59:00.974Z,960.55
2018-01-03T13:00:10.947Z,960.55
2018-01-03T13:01:20.956Z,960.51
2018-01-03T13:02:30.982Z,960.5
2018-01-03T13:03:40.700Z,960.51
2018-01-03T13:04:50.677Z,960.56
2018-01-03T13:06:00.391Z,960.56
2018-01-03T13:07:09.841Z,960.59
2018-01-03T13:08:19.620Z,960.58
2018-01-03T13:09:28.802Z,960.59
2018-01-03T13:10:38.812Z,960.62
2018-01-03T13:11:48.256Z,960.6
2018-01-03T13:12:57.707Z,960.56
2018-01-03T13:14:07.461Z,960.62
2018-01-03T13:15:17.445Z,960.58
2018-01-03T13:16:27.155Z,960.6
2018-01-03T13:17:37.130Z,960.58
2018-01-03T13:18:47.160Z,960.57
2018-01-03T13:19:56.870Z,960.55
2018-01-03T13:21:06.591Z,960.53
2018-01-03T13:22:16.564Z,960.51
2018-01-03T13:23:26.286Z,960.52
2018-01-03T13:24:35.999Z,960.49
2018-01-03T13:25:45.713Z,960.53
2018-01-03T13:26:55.423Z,960.51
2018-01-03T13:28:05.402Z,960.52
2018-01-03T13:29:15.111Z,960.54
2018-01-03T13:30:24.824Z,960.59
2018-01-03T13:31:34.545Z,960.55
2018-01-03T13:32:44.256Z,960.53
2018-01-03T13:33:53.702Z,960.55
2018-01-03T13:35:03.683Z,960.5
2018-01-03T13:36:13.668Z,960.52
2018-01-03T13:37:23.384Z,960.51
2018-01-03T13:38:33.098Z,960.61
2018-01-03T13:39:43.081Z,960.6
2018-01-03T13:40:52.527Z,960.62
2018-01-03T13:42:02.558Z,960.6
2018-01-03T13:43:12.267Z,960.6
2018-01-03T13:44:21.736Z,960.63
2018-01-03T13:45:31.454Z,960.59
2018-01-03T13:46:41.180Z,960.6
2018-01-03T13:47:51.183Z,960.61
2018-01-03T13:49:00.902Z,960.63
2018-01-03T13:50:10.885Z,960.56
2018-01-03T13:51:20.867Z,960.61
2018-01-03T13:52:30.844Z,960.62
2018-01-03T13:53:40.827Z,960.55
2018-01-03T13:54:50.811Z,960.57
2018-01-03T13:56:00.523Z,960.57
2018-01-03T13:57:10.278Z,960.57
2018-01-03T13:58:20.259Z,960.5
2018-01-03T13:59:30.237Z,960.59
2018-01-03T14:00:39.700Z,960.62
2018-01-03T14:01:49.684Z,960.61
2018-01-03T14:02:59.667Z,960.6
2018-01-03T14:04:09.383Z,960.6
2018-01-03T14:05:19.367Z,960.59
2018-01-03T14:06:29.077Z,960.58
2018-01-03T14:07:39.061Z,960.56
2018-01-03T14:08:49.039Z,960.57
2018-01-03T14:09:58.804Z,960.59
2018-01-03T14:11:08.256Z,960.57
2018-01-03T14:12:17.966Z,960.58
2018-01-03T14:13:27.960Z,960.6
2018-01-03T14:14:37.949Z,960.59
2018-01-03T14:15:47.923Z,960.63
2018-01-03T14:16:57.640Z,960.59
2018-01-03T14:18:07.090Z,960.63
2018-01-03T14:19:16.802Z,960.62
2018-01-03T14:20:26.782Z,960.64
2018-01-03T14:21:36.760Z,960.67
2018-01-03T14:22:46.737Z,960.62
2018-01-03T14:23:56.184Z,960.63
2018-01-03T14:25:05.375Z,960.63
2018-01-03T14:26:15.092Z,960.62
2018-01-03T14:27:25.070Z,960.59
2018-01-03T14:28:34.789Z,960.62
2018-01-03T14:29:44.505Z,960.63
2018-01-03T14:30:54.214Z,960.62
2018-01-03T14:32:04.189Z,960.64
2018-01-03T14:33:14.178Z,960.61
2018-01-03T14:34:23.898Z,960.64
2018-01-03T14:35:33.614Z,960.62
2018-01-03T14:36:43.061Z,960.6
2018-01-03T14:37:53.033Z,960.62